Time;durP1;ratioP1;P1;durP2;ratioP2;P2;SDS_P1;SDS_P2;PMS_P1;PMS_P2;Temp;Humidity;BMP_temperature;BMP_pressure;BME280_temperature;BME280_humidity;BME280_pressure;Samples;Min_cycle;Max_cycle;Signal;HPM_P1;HPM_P2
2021/06/30 00:00:02;;;;;;;8.02;7.32;;;18.30;60.80;;;;;;5046951;28;20115;-84
2021/06/30 00:02:37;;;;;;;7.60;7.00;;;18.20;60.70;;;;;;5047296;28;20098;-84
2021/06/30 00:05:05;;;;;;;7.47;6.80;;;18.20;60.80;;;;;;5048324;28;20060;-84
2021/06/30 00:07:32;;;;;;;7.85;7.15;;;18.20;60.90;;;;;;5048009;28;20033;-84
2021/06/30 00:09:59;;;;;;;7.22;6.63;;;18.10;60.80;;;;;;5042727;28;20053;-84
2021/06/30 00:12:25;;;;;;;7.22;6.57;;;18.10;60.90;;;;;;5009896;28;20037;-84
2021/06/30 00:14:53;;;;;;;7.85;7.15;;;18.10;61.00;;;;;;5041641;28;20481;-84
2021/06/30 00:17:20;;;;;;;8.10;7.40;;;18.00;60.90;;;;;;5027159;28;20507;-84
2021/06/30 00:19:46;;;;;;;6.78;6.18;;;18.00;61.00;;;;;;5042262;28;20024;-83
2021/06/30 00:22:12;;;;;;;6.72;6.22;;;18.00;61.10;;;;;;5045953;28;20079;-83
2021/06/30 00:24:39;;;;;;;7.07;6.47;;;17.90;61.00;;;;;;5045723;28;20094;-84
2021/06/30 00:27:05;;;;;;;7.63;6.63;;;17.90;61.00;;;;;;5045967;28;20135;-84
2021/06/30 00:29:31;;;;;;;7.88;7.25;;;17.90;61.10;;;;;;5046114;28;20059;-85
2021/06/30 00:31:57;;;;;;;7.28;6.68;;;17.90;61.20;;;;;;5046206;28;20076;-84
2021/06/30 00:34:23;;;;;;;7.65;7.05;;;17.80;61.10;;;;;;5046050;28;20045;-84
2021/06/30 00:36:49;;;;;;;7.70;7.00;;;17.80;61.20;;;;;;5046818;28;20102;-85
2021/06/30 00:39:16;;;;;;;9.10;8.20;;;17.70;61.00;;;;;;5035948;28;20551;-84
2021/06/30 00:41:43;;;;;;;8.25;6.65;;;17.70;61.10;;;;;;5027200;28;20110;-86
2021/06/30 00:44:10;;;;;;;7.35;6.80;;;17.70;61.70;;;;;;5019628;28;20103;-86
2021/06/30 00:46:36;;;;;;;7.45;6.82;;;17.60;61.10;;;;;;5026087;28;20064;-85
2021/06/30 00:49:06;;;;;;;7.32;6.72;;;17.60;61.10;;;;;;5025712;28;20477;-86
2021/06/30 00:51:32;;;;;;;7.43;6.82;;;17.60;61.20;;;;;;5027031;28;20521;-88
2021/06/30 00:53:59;;;;;;;7.85;7.15;;;17.50;61.10;;;;;;5017997;28;20021;-84
2021/06/30 00:56:27;;;;;;;6.95;6.43;;;17.50;61.20;;;;;;5042494;28;20029;-81
2021/06/30 00:58:56;;;;;;;7.40;6.78;;;17.50;61.20;;;;;;5033895;28;20029;-83
2021/06/30 01:01:23;;;;;;;8.27;7.47;;;17.40;61.20;;;;;;5046862;28;20366;-82
2021/06/30 01:03:50;;;;;;;7.70;7.10;;;17.40;61.20;;;;;;5034772;28;20575;-83
2021/06/30 01:06:17;;;;;;;7.32;6.72;;;17.40;61.30;;;;;;5045457;28;20037;-88
2021/06/30 01:08:43;;;;;;;7.63;7.03;;;17.40;61.40;;;;;;5046689;28;20099;-88
2021/06/30 01:11:11;;;;;;;7.70;7.10;;;17.30;61.30;;;;;;5048175;28;20037;-88
2021/06/30 01:13:39;;;;;;;7.40;6.80;;;17.30;61.40;;;;;;5047413;28;20060;-87
2021/06/30 01:16:05;;;;;;;7.95;7.22;;;17.20;61.30;;;;;;5048933;28;20029;-87
2021/06/30 01:18:33;;;;;;;7.57;6.97;;;17.20;61.30;;;;;;5048004;28;20124;-88
2021/06/30 01:21:00;;;;;;;8.02;7.32;;;17.20;61.40;;;;;;5047538;28;20121;-86
2021/06/30 01:23:27;;;;;;;7.78;7.07;;;17.10;61.30;;;;;;5050951;28;20495;-85
2021/06/30 01:25:53;;;;;;;8.05;7.40;;;17.10;61.40;;;;;;5049846;28;20047;-85
2021/06/30 01:28:20;;;;;;;7.38;6.78;;;17.00;61.30;;;;;;5051107;28;20059;-86
2021/06/30 01:30:49;;;;;;;7.80;7.20;;;17.00;61.40;;;;;;5045567;28;20488;-87
2021/06/30 01:33:15;;;;;;;8.05;7.35;;;16.90;61.30;;;;;;5040873;28;20056;-85
2021/06/30 01:35:42;;;;;;;7.75;7.15;;;17.00;61.50;;;;;;5050835;28;20029;-86
2021/06/30 01:38:08;;;;;;;8.20;7.50;;;16.90;61.40;;;;;;5050840;28;20409;-85
2021/06/30 01:40:34;;;;;;;7.43;6.72;;;16.90;61.50;;;;;;5034350;28;20048;-85
2021/06/30 01:43:01;;;;;;;8.27;7.47;;;16.80;61.40;;;;;;5050503;28;20033;-85
2021/06/30 01:45:27;;;;;;;8.27;7.57;;;16.80;61.40;;;;;;5050441;28;20044;-86
2021/06/30 01:47:53;;;;;;;8.32;7.38;;;16.80;61.50;;;;;;5054113;28;20033;-86
2021/06/30 01:50:20;;;;;;;7.47;6.88;;;16.70;61.40;;;;;;5053793;28;20021;-86
2021/06/30 01:52:46;;;;;;;8.75;7.68;;;16.70;61.50;;;;;;5067712;28;20037;-86
2021/06/30 01:55:13;;;;;;;8.13;7.43;;;16.70;61.50;;;;;;5017348;28;20444;-85
2021/06/30 01:57:45;;;;;;;8.75;8.05;;;16.60;61.50;;;;;;5033764;28;20409;-86
2021/06/30 02:00:13;;;;;;;8.07;7.35;;;16.60;61.50;;;;;;5017332;28;20025;-85
2021/06/30 02:02:40;;;;;;;7.35;6.75;;;16.60;61.60;;;;;;5033030;28;20487;-85
2021/06/30 02:05:10;;;;;;;7.68;7.07;;;16.50;61.50;;;;;;5035021;28;20029;-85
2021/06/30 02:07:36;;;;;;;7.82;7.03;;;16.50;61.50;;;;;;5033972;28;20034;-85
2021/06/30 02:10:08;;;;;;;7.95;7.30;;;16.50;61.60;;;;;;5034036;28;20025;-86
2021/06/30 02:12:35;;;;;;;7.70;7.07;;;16.50;61.70;;;;;;5033380;28;20033;-82
2021/06/30 02:15:05;;;;;;;8.07;7.30;;;16.40;61.50;;;;;;5049688;28;20025;-83
2021/06/30 02:17:31;;;;;;;8.27;7.60;;;16.40;61.60;;;;;;5032884;28;20031;-85
2021/06/30 02:19:57;;;;;;;7.43;6.78;;;16.40;61.70;;;;;;5033884;28;20497;-86
2021/06/30 02:22:23;;;;;;;9.55;7.78;;;16.30;61.60;;;;;;5032788;28;20071;-85
2021/06/30 02:24:49;;;;;;;7.97;7.28;;;16.30;61.60;;;;;;5050071;28;20030;-85
2021/06/30 02:27:15;;;;;;;8.55;7.65;;;16.30;61.70;;;;;;5033100;28;20037;-84
2021/06/30 02:29:41;;;;;;;8.02;7.32;;;16.20;61.60;;;;;;5051240;28;20026;-86
2021/06/30 02:32:07;;;;;;;7.97;7.28;;;16.20;61.60;;;;;;5033037;28;20064;-84
2021/06/30 02:34:33;;;;;;;8.02;7.35;;;16.20;61.70;;;;;;5031448;28;20074;-83
2021/06/30 02:36:59;;;;;;;8.65;7.95;;;16.10;61.60;;;;;;5034289;28;20504;-85
2021/06/30 02:39:25;;;;;;;7.95;7.25;;;16.10;61.70;;;;;;5033709;28;20040;-85
2021/06/30 02:41:51;;;;;;;8.02;7.32;;;16.10;61.70;;;;;;5016202;28;20026;-84
2021/06/30 02:44:17;;;;;;;8.75;7.95;;;16.00;61.60;;;;;;5032874;28;20036;-83
2021/06/30 02:46:44;;;;;;;7.78;7.18;;;16.00;61.60;;;;;;5016042;28;20042;-84
2021/06/30 02:49:10;;;;;;;8.93;8.13;;;16.00;61.70;;;;;;5032585;28;20032;-85
2021/06/30 02:51:35;;;;;;;8.35;7.65;;;16.00;61.80;;;;;;5048569;28;20124;-85
2021/06/30 02:54:01;;;;;;;8.27;7.60;;;16.00;61.90;;;;;;5032450;28;20029;-85
2021/06/30 02:56:27;;;;;;;8.73;8.00;;;16.00;61.90;;;;;;5048896;28;20022;-84
2021/06/30 02:58:53;;;;;;;7.55;6.95;;;15.90;61.70;;;;;;5015655;28;20049;-85
2021/06/30 03:01:19;;;;;;;10.20;7.20;;;15.90;61.80;;;;;;5032310;28;20474;-87
2021/06/30 03:03:45;;;;;;;7.20;6.60;;;15.80;61.60;;;;;;5015957;28;20029;-84
2021/06/30 03:06:12;;;;;;;7.75;7.15;;;15.80;61.70;;;;;;5032216;28;20052;-86
2021/06/30 03:08:38;;;;;;;8.43;7.68;;;15.80;61.70;;;;;;5032615;28;20112;-85
2021/06/30 03:11:04;;;;;;;7.90;7.20;;;15.80;61.80;;;;;;5032576;28;20137;-83
2021/06/30 03:13:30;;;;;;;7.97;7.32;;;15.80;61.80;;;;;;5032321;28;20116;-84
2021/06/30 03:15:56;;;;;;;6.82;6.22;;;15.80;61.90;;;;;;5015731;28;20588;-85
2021/06/30 03:18:22;;;;;;;8.20;7.40;;;15.70;61.70;;;;;;5031946;28;20200;-84
2021/06/30 03:20:48;;;;;;;7.97;7.28;;;15.70;61.80;;;;;;5032225;28;20036;-84
2021/06/30 03:23:14;;;;;;;7.88;7.18;;;15.70;61.70;;;;;;5032196;28;20080;-84
2021/06/30 03:25:40;;;;;;;7.45;6.85;;;15.70;61.80;;;;;;5032175;28;20052;-83
2021/06/30 03:28:06;;;;;;;7.40;6.72;;;15.60;61.70;;;;;;5032880;28;20025;-83
2021/06/30 03:30:34;;;;;;;7.30;6.57;;;15.60;61.80;;;;;;5031643;28;20109;-83
2021/06/30 03:33:01;;;;;;;7.72;7.00;;;15.60;61.90;;;;;;5032033;28;20102;-83
2021/06/30 03:35:28;;;;;;;7.53;6.88;;;15.60;61.90;;;;;;5032684;28;20461;-83
2021/06/30 03:37:54;;;;;;;7.93;7.25;;;15.50;61.80;;;;;;5031304;28;20090;-83
2021/06/30 03:40:20;;;;;;;7.55;6.85;;;15.50;61.80;;;;;;5031310;28;20272;-82
2021/06/30 03:42:46;;;;;;;7.15;6.55;;;15.50;61.90;;;;;;5047870;28;20026;-82
2021/06/30 03:45:13;;;;;;;7.80;7.20;;;15.40;61.80;;;;;;5031836;28;20405;-82
2021/06/30 03:47:39;;;;;;;7.30;6.68;;;15.40;61.80;;;;;;5032225;28;20099;-81
2021/06/30 03:50:06;;;;;;;6.95;6.28;;;15.40;61.90;;;;;;5031269;28;20029;-82
2021/06/30 03:52:33;;;;;;;7.00;6.20;;;15.30;61.70;;;;;;4998196;28;20595;-82
2021/06/30 03:54:59;;;;;;;7.05;6.40;;;15.30;61.80;;;;;;5032201;28;20036;-82
2021/06/30 03:57:25;;;;;;;7.32;6.63;;;15.30;61.80;;;;;;5031214;28;20057;-84
2021/06/30 03:59:52;;;;;;;6.85;6.25;;;15.30;61.90;;;;;;5031521;28;20032;-87
2021/06/30 04:02:18;;;;;;;7.13;6.53;;;15.30;61.90;;;;;;5040442;28;20044;-86
2021/06/30 04:04:44;;;;;;;7.80;7.10;;;15.20;61.80;;;;;;5052202;28;20109;-82
2021/06/30 04:07:11;;;;;;;7.57;6.93;;;15.20;61.80;;;;;;5050863;28;20044;-81
2021/06/30 04:09:37;;;;;;;7.45;6.85;;;15.20;61.90;;;;;;5051501;28;20032;-82
2021/06/30 04:12:04;;;;;;;7.72;7.13;;;15.20;61.90;;;;;;5035242;28;20032;-84
2021/06/30 04:14:30;;;;;;;7.32;6.72;;;15.20;61.90;;;;;;5050046;28;20078;-83
2021/06/30 04:16:56;;;;;;;7.05;6.45;;;15.20;61.90;;;;;;5064398;28;20030;-82
2021/06/30 04:19:22;;;;;;;8.02;6.40;;;15.10;61.80;;;;;;5032006;28;20063;-84
2021/06/30 04:21:49;;;;;;;8.77;6.72;;;15.20;62.10;;;;;;5031411;28;20094;-81
2021/06/30 04:24:15;;;;;;;6.45;5.95;;;15.10;61.90;;;;;;5049400;28;20029;-83
2021/06/30 04:26:42;;;;;;;6.40;5.90;;;15.10;61.90;;;;;;5051298;28;20048;-85
2021/06/30 04:29:09;;;;;;;6.95;6.35;;;15.10;61.90;;;;;;5040424;28;20512;-79
2021/06/30 04:31:35;;;;;;;6.60;6.05;;;15.10;62.00;;;;;;5048177;28;20025;-81
2021/06/30 04:34:01;;;;;;;6.80;6.10;;;15.10;62.00;;;;;;5037352;28;20033;-81
2021/06/30 04:36:27;;;;;;;6.68;6.13;;;15.10;62.10;;;;;;5049984;28;20025;-81
2021/06/30 04:38:53;;;;;;;6.32;5.82;;;15.10;62.10;;;;;;5047996;28;20040;-87
2021/06/30 04:41:19;;;;;;;7.38;6.05;;;15.10;62.10;;;;;;5047005;28;20395;-78
2021/06/30 04:43:45;;;;;;;6.18;5.68;;;15.10;62.10;;;;;;5050753;28;20029;-80
2021/06/30 04:46:11;;;;;;;6.35;5.75;;;15.10;62.20;;;;;;5066191;28;20029;-81
2021/06/30 04:48:38;;;;;;;7.30;6.68;;;15.00;62.00;;;;;;5046588;28;20123;-81
2021/06/30 04:51:05;;;;;;;6.22;5.72;;;15.00;62.00;;;;;;5028688;28;20457;-82
2021/06/30 04:53:31;;;;;;;5.97;5.47;;;15.10;62.20;;;;;;5046499;28;20139;-83
2021/06/30 04:55:59;;;;;;;7.10;6.50;;;15.10;62.20;;;;;;5042342;28;20033;-77
2021/06/30 04:58:26;;;;;;;6.13;5.63;;;15.10;62.20;;;;;;5060883;28;20033;-77
2021/06/30 05:00:55;;;;;;;6.40;5.82;;;15.10;62.20;;;;;;5049083;28;20112;-78
2021/06/30 05:03:27;;;;;;;6.50;6.00;;;15.10;62.20;;;;;;5045198;28;20465;-80
2021/06/30 05:05:56;;;;;;;6.10;5.47;;;15.10;62.20;;;;;;5062996;28;20925;-78
2021/06/30 05:08:23;;;;;;;6.15;5.65;;;15.10;62.20;;;;;;5040536;28;20033;-80
2021/06/30 05:10:52;;;;;;;5.88;5.38;;;15.10;62.20;;;;;;5050531;28;20029;-81
2021/06/30 05:13:18;;;;;;;6.68;6.07;;;15.20;62.40;;;;;;5050328;28;20021;-80
2021/06/30 05:15:45;;;;;;;6.63;6.03;;;15.20;62.30;;;;;;5049424;28;20033;-81
2021/06/30 05:18:11;;;;;;;5.70;5.18;;;15.20;62.30;;;;;;5050306;28;20033;-79
2021/06/30 05:20:37;;;;;;;6.15;5.65;;;15.20;62.30;;;;;;5050253;28;20564;-79
2021/06/30 05:23:03;;;;;;;5.72;5.22;;;15.20;62.30;;;;;;5049744;28;20029;-82
2021/06/30 05:25:29;;;;;;;6.35;5.85;;;15.20;62.30;;;;;;5049987;28;20029;-82
2021/06/30 05:27:55;;;;;;;6.28;5.78;;;15.30;62.40;;;;;;5041331;28;20124;-80
2021/06/30 05:30:21;;;;;;;5.88;5.38;;;15.30;62.40;;;;;;5043511;28;20108;-77
2021/06/30 05:32:47;;;;;;;5.25;4.85;;;15.30;62.30;;;;;;5049315;28;20060;-78
2021/06/30 05:35:13;;;;;;;5.35;4.95;;;15.40;62.60;;;;;;5046030;28;20074;-79
2021/06/30 05:37:39;;;;;;;5.78;5.28;;;15.50;62.60;;;;;;5049694;28;20032;-80
2021/06/30 05:40:06;;;;;;;6.28;5.78;;;15.50;62.60;;;;;;5048503;28;20028;-80
2021/06/30 05:42:32;;;;;;;5.70;5.18;;;15.50;62.50;;;;;;5058282;28;20107;-83
2021/06/30 05:44:58;;;;;;;5.88;5.40;;;15.50;62.50;;;;;;5028850;28;20029;-80
2021/06/30 05:47:24;;;;;;;5.35;4.93;;;15.60;62.60;;;;;;5031233;28;20099;-82
2021/06/30 05:49:50;;;;;;;5.68;5.25;;;15.60;62.60;;;;;;5048769;28;20459;-79
2021/06/30 05:52:16;;;;;;;6.03;5.53;;;15.70;62.70;;;;;;5049609;28;20028;-78
2021/06/30 05:54:42;;;;;;;5.68;5.18;;;15.70;62.70;;;;;;5049602;28;20021;-78
2021/06/30 05:57:08;;;;;;;6.88;6.20;;;15.80;62.90;;;;;;5048257;28;20369;-78
2021/06/30 05:59:36;;;;;;;6.43;5.88;;;15.90;63.00;;;;;;5049890;28;20257;-79
2021/06/30 06:02:03;;;;;;;6.32;5.82;;;16.00;63.20;;;;;;5049198;28;20170;-78
2021/06/30 06:04:28;;;;;;;7.07;5.30;;;16.10;63.20;;;;;;5049508;28;20029;-79
2021/06/30 06:06:54;;;;;;;6.22;5.72;;;16.20;63.30;;;;;;5031681;28;20472;-80
2021/06/30 06:09:21;;;;;;;6.40;5.90;;;16.30;63.50;;;;;;5048822;28;20171;-78
2021/06/30 06:11:47;;;;;;;6.72;6.13;;;16.40;63.60;;;;;;5048986;28;20037;-79
2021/06/30 06:14:13;;;;;;;6.60;6.10;;;16.50;63.70;;;;;;5030695;28;20264;-82
2021/06/30 06:16:39;;;;;;;6.40;5.85;;;16.60;63.80;;;;;;5029606;28;20051;-83
2021/06/30 06:19:05;;;;;;;6.80;6.20;;;16.80;64.10;;;;;;5029705;28;20033;-79
2021/06/30 06:21:32;;;;;;;6.55;6.05;;;16.90;64.10;;;;;;5029398;28;20056;-77
2021/06/30 06:23:59;;;;;;;7.40;6.70;;;17.00;64.30;;;;;;5027883;28;20037;-79
2021/06/30 06:26:25;;;;;;;8.60;6.32;;;17.20;64.50;;;;;;5029400;28;20131;-81
2021/06/30 06:28:51;;;;;;;9.88;6.20;;;17.30;64.70;;;;;;5028839;28;20057;-80
2021/06/30 06:31:18;;;;;;;6.32;5.72;;;17.40;64.80;;;;;;5029150;28;20159;-79
2021/06/30 06:33:44;;;;;;;7.47;6.15;;;17.60;65.00;;;;;;5029261;28;20052;-78
2021/06/30 06:36:11;;;;;;;6.93;6.28;;;17.80;65.10;;;;;;5029482;28;20315;-79
2021/06/30 06:38:40;;;;;;;7.13;6.43;;;18.00;65.40;;;;;;5029536;28;20033;-81
2021/06/30 06:41:06;;;;;;;7.22;6.63;;;18.10;65.50;;;;;;5028696;28;20052;-81
2021/06/30 06:43:34;;;;;;;7.20;6.50;;;18.30;65.70;;;;;;5029349;28;20112;-83
2021/06/30 06:46:01;;;;;;;6.60;6.00;;;18.50;65.80;;;;;;5028709;28;20052;-78
2021/06/30 06:48:27;;;;;;;7.57;6.63;;;18.80;66.20;;;;;;5010933;28;20029;-80
2021/06/30 06:50:53;;;;;;;6.70;6.10;;;19.10;66.30;;;;;;5037204;28;20531;-82
2021/06/30 06:53:19;;;;;;;7.07;6.47;;;19.30;66.20;;;;;;5046353;28;20025;-83
2021/06/30 06:55:45;;;;;;;7.50;6.80;;;19.50;66.30;;;;;;5048199;28;20029;-83
2021/06/30 06:58:11;;;;;;;8.13;6.55;;;19.80;66.70;;;;;;5041683;28;20036;-84
2021/06/30 07:00:38;;;;;;;7.25;6.55;;;20.10;66.90;;;;;;5029316;28;20110;-82
2021/06/30 07:03:04;;;;;;;8.68;7.78;;;20.40;67.00;;;;;;5032919;28;20321;-82
2021/06/30 07:05:32;;;;;;;7.90;7.20;;;20.80;67.20;;;;;;5027161;28;20124;-82
2021/06/30 07:07:58;;;;;;;7.93;7.22;;;21.20;67.40;;;;;;5016716;28;20048;-81
2021/06/30 07:10:24;;;;;;;7.65;6.95;;;21.50;67.30;;;;;;5048960;28;20036;-82
2021/06/30 07:12:50;;;;;;;6.15;5.65;;;21.90;67.40;;;;;;5048446;28;20032;-81
2021/06/30 07:15:16;;;;;;;7.28;6.68;;;22.30;67.50;;;;;;5047364;28;20049;-82
2021/06/30 07:17:42;;;;;;;6.78;6.18;;;22.60;67.30;;;;;;5044218;28;20037;-82
2021/06/30 07:20:08;;;;;;;6.13;5.63;;;23.00;67.30;;;;;;5027353;28;20036;-81
2021/06/30 07:22:35;;;;;;;6.63;6.03;;;23.30;67.10;;;;;;5028288;28;20084;-83
2021/06/30 07:25:01;;;;;;;6.50;6.00;;;23.60;66.90;;;;;;5027415;28;20025;-80
2021/06/30 07:27:28;;;;;;;6.93;6.32;;;23.90;66.70;;;;;;5027927;28;20034;-79
2021/06/30 07:29:54;;;;;;;7.25;5.70;;;24.10;66.50;;;;;;5025870;28;20029;-82
2021/06/30 07:32:20;;;;;;;6.95;6.25;;;24.30;66.40;;;;;;5042165;28;20098;-81
2021/06/30 07:34:46;;;;;;;7.18;6.47;;;24.50;66.20;;;;;;5048796;28;20145;-82
2021/06/30 07:37:12;;;;;;;7.68;6.97;;;24.70;66.00;;;;;;5047696;28;20546;-83
2021/06/30 07:39:39;;;;;;;7.70;6.35;;;25.10;66.00;;;;;;5046742;28;20021;-83
2021/06/30 07:42:05;;;;;;;6.65;6.00;;;25.30;65.40;;;;;;5030315;28;20151;-82
2021/06/30 07:44:31;;;;;;;8.48;6.90;;;25.60;64.90;;;;;;5048366;28;20029;-84
2021/06/30 07:46:57;;;;;;;9.73;7.00;;;25.80;64.40;;;;;;5047207;28;20492;-81
2021/06/30 07:49:23;;;;;;;7.40;6.80;;;26.00;63.90;;;;;;5046827;28;20095;-83
2021/06/30 07:51:50;;;;;;;7.97;7.25;;;26.20;63.50;;;;;;5064557;28;20039;-85
2021/06/30 07:54:17;;;;;;;8.07;7.25;;;26.20;63.00;;;;;;5047503;28;20373;-82
2021/06/30 07:56:43;;;;;;;9.98;7.80;;;26.20;62.80;;;;;;5046486;28;20029;-84
2021/06/30 07:59:11;;;;;;;9.00;7.43;;;26.20;62.70;;;;;;5047965;28;20024;-85
2021/06/30 08:01:38;;;;;;;8.15;7.45;;;26.30;62.60;;;;;;5048090;28;20040;-84
2021/06/30 08:04:05;;;;;;;9.27;8.25;;;26.40;62.30;;;;;;5029324;28;20083;-83
2021/06/30 08:06:32;;;;;;;9.00;7.53;;;26.70;62.00;;;;;;5027005;28;20477;-81
2021/06/30 08:08:58;;;;;;;7.80;7.10;;;26.90;61.60;;;;;;5041258;28;20082;-83
2021/06/30 08:11:24;;;;;;;9.77;8.73;;;27.10;61.20;;;;;;5046351;28;20112;-85
2021/06/30 08:13:53;;;;;;;9.23;8.05;;;27.40;60.60;;;;;;5046269;28;20028;-83
2021/06/30 08:16:21;;;;;;;9.65;8.65;;;27.70;60.10;;;;;;5048046;28;20056;-85
2021/06/30 08:18:47;;;;;;;8.95;8.15;;;28.00;59.60;;;;;;5029402;28;20495;-84
2021/06/30 08:21:16;;;;;;;9.15;8.25;;;28.50;59.70;;;;;;5029884;28;20037;-81
2021/06/30 08:23:43;;;;;;;9.55;8.55;;;28.90;58.10;;;;;;5046730;28;20103;-81
2021/06/30 08:26:10;;;;;;;27.65;21.15;;;29.40;57.20;;;;;;5047175;28;20035;-84
2021/06/30 08:28:36;;;;;;;29.17;22.00;;;29.90;55.90;;;;;;5046470;28;20025;-85
2021/06/30 08:31:03;;;;;;;25.85;21.45;;;30.10;53.70;;;;;;5045624;28;20021;-86
2021/06/30 08:33:29;;;;;;;23.45;21.02;;;30.20;52.90;;;;;;5046180;28;20408;-86
2021/06/30 08:35:56;;;;;;;24.52;21.95;;;30.10;52.10;;;;;;5048362;28;20025;-89
2021/06/30 08:38:22;;;;;;;23.15;20.60;;;30.10;51.70;;;;;;5048237;28;20116;-86
2021/06/30 08:40:56;;;;;;;23.25;19.25;;;30.20;51.10;;;;;;5046688;28;20116;-83
2021/06/30 08:43:23;;;;;;;24.23;19.58;;;30.10;50.50;;;;;;5048002;28;20028;-84
2021/06/30 08:45:49;;;;;;;21.52;19.13;;;29.90;50.50;;;;;;5045504;28;20045;-83
2021/06/30 08:48:16;;;;;;;22.52;20.13;;;29.80;50.30;;;;;;5036190;28;20259;-83
2021/06/30 08:50:44;;;;;;;21.95;19.65;;;29.70;49.80;;;;;;5046034;28;20039;-85
2021/06/30 08:53:14;;;;;;;29.40;20.65;;;29.70;49.70;;;;;;5053569;28;20029;-86
2021/06/30 08:55:44;;;;;;;21.02;18.90;;;29.80;49.30;;;;;;5026454;28;20033;-85
2021/06/30 08:58:12;;;;;;;21.05;19.02;;;29.80;49.00;;;;;;5025833;28;20029;-85
2021/06/30 09:00:40;;;;;;;20.75;18.73;;;29.90;48.90;;;;;;5010519;28;20476;-84
2021/06/30 09:03:12;;;;;;;21.63;18.33;;;29.90;48.80;;;;;;5027391;28;20033;-86
2021/06/30 09:05:49;;;;;;;21.38;19.17;;;29.90;48.70;;;;;;5025734;28;20033;-84
2021/06/30 09:08:15;;;;;;;22.25;19.75;;;29.70;48.80;;;;;;5026216;28;20405;-82
2021/06/30 09:10:41;;;;;;;22.90;20.55;;;29.50;49.10;;;;;;5042962;28;20456;-88
2021/06/30 09:13:20;;;;;;;23.33;20.48;;;29.20;49.70;;;;;;5027256;28;20029;-87
2021/06/30 09:15:55;;;;;;;23.25;21.13;;;28.80;50.20;;;;;;5027272;28;20290;-84
2021/06/30 09:18:34;;;;;;;22.45;20.38;;;28.50;50.70;;;;;;5026146;28;20037;-81
2021/06/30 09:21:19;;;;;;;22.35;20.15;;;28.20;51.00;;;;;;5009324;28;20474;-83
2021/06/30 09:24:01;;;;;;;23.42;20.15;;;28.00;51.40;;;;;;5026612;28;20372;-83
2021/06/30 09:26:31;;;;;;;22.50;20.25;;;27.70;51.60;;;;;;5025749;28;20393;-83
2021/06/30 09:29:09;;;;;;;23.48;21.00;;;27.50;52.00;;;;;;5025750;28;20037;-85
2021/06/30 09:31:40;;;;;;;22.55;20.15;;;27.20;52.40;;;;;;5032404;28;20139;-82
2021/06/30 09:34:06;;;;;;;22.73;20.52;;;27.00;52.70;;;;;;5046917;28;20377;-85
2021/06/30 09:36:44;;;;;;;23.35;20.98;;;27.00;52.90;;;;;;5047710;28;20036;-85
2021/06/30 09:39:12;;;;;;;23.85;21.45;;;27.00;53.10;;;;;;5046475;28;20606;-82
2021/06/30 09:41:41;;;;;;;21.88;19.67;;;27.00;53.00;;;;;;5045509;28;20064;-85
2021/06/30 09:44:17;;;;;;;21.83;19.75;;;27.00;53.20;;;;;;5050322;28;20456;-90
2021/06/30 09:46:44;;;;;;;21.98;19.88;;;26.90;53.20;;;;;;5048760;28;20060;-82
2021/06/30 09:49:16;;;;;;;21.48;19.35;;;26.90;53.60;;;;;;5051782;28;20040;-84
2021/06/30 09:51:43;;;;;;;23.52;21.13;;;26.80;54.00;;;;;;5050472;28;20044;-84
2021/06/30 09:54:12;;;;;;;24.65;21.98;;;26.80;54.20;;;;;;5049900;28;20029;-82
2021/06/30 09:56:52;;;;;;;24.38;22.05;;;26.80;54.10;;;;;;5048721;28;20106;-83
2021/06/30 09:59:21;;;;;;;23.35;20.92;;;26.90;54.00;;;;;;5062816;28;20064;-81
2021/06/30 10:02:01;;;;;;;22.75;20.05;;;26.80;53.80;;;;;;5048135;28;20036;-80
2021/06/30 10:04:38;;;;;;;20.23;18.25;;;26.90;53.80;;;;;;5046611;28;20278;-79
2021/06/30 10:07:11;;;;;;;21.50;19.25;;;26.90;54.10;;;;;;5046577;28;20025;-80
2021/06/30 10:09:39;;;;;;;22.70;20.20;;;26.90;54.10;;;;;;5027054;28;20029;-79
2021/06/30 10:12:10;;;;;;;23.13;19.45;;;26.90;54.20;;;;;;5044988;28;20064;-80
2021/06/30 10:14:39;;;;;;;20.40;18.25;;;27.00;54.30;;;;;;5028079;28;20392;-80
2021/06/30 10:17:07;;;;;;;17.55;15.95;;;27.20;54.30;;;;;;5029467;28;20033;-79
2021/06/30 10:19:35;;;;;;;17.88;16.15;;;27.40;54.30;;;;;;5048132;28;20588;-80
2021/06/30 10:22:01;;;;;;;17.92;16.23;;;27.60;54.20;;;;;;5047893;28;20060;-79
2021/06/30 10:24:27;;;;;;;17.80;16.10;;;27.80;54.00;;;;;;5049032;28;20025;-79
2021/06/30 10:26:54;;;;;;;17.20;15.48;;;28.00;53.90;;;;;;5047308;28;20033;-81
2021/06/30 10:29:24;;;;;;;16.40;14.80;;;28.20;53.80;;;;;;5044447;28;20032;-82
2021/06/30 10:31:50;;;;;;;17.58;15.88;;;28.30;53.60;;;;;;5046396;28;20044;-81
2021/06/30 10:34:17;;;;;;;17.05;14.63;;;28.60;53.50;;;;;;5049625;28;20064;-81
2021/06/30 10:36:48;;;;;;;15.48;14.05;;;28.80;53.40;;;;;;5048918;28;20528;-85
2021/06/30 10:39:16;;;;;;;17.38;14.05;;;29.00;53.30;;;;;;5049051;28;20037;-84
2021/06/30 10:41:53;;;;;;;15.02;13.52;;;29.10;53.10;;;;;;5031668;28;20370;-84
2021/06/30 10:44:20;;;;;;;20.17;18.02;;;29.20;53.10;;;;;;5048481;28;20080;-82
2021/06/30 10:46:46;;;;;;;16.42;13.98;;;29.20;53.40;;;;;;5048136;28;20052;-81
2021/06/30 10:49:22;;;;;;;15.13;13.52;;;29.20;53.40;;;;;;5045949;28;20051;-79
2021/06/30 10:52:03;;;;;;;13.27;11.95;;;29.40;53.40;;;;;;5046319;28;20032;-78
2021/06/30 10:54:36;;;;;;;13.07;11.88;;;29.50;53.30;;;;;;5044433;28;20059;-80
2021/06/30 10:57:25;;;;;;;;;;;29.70;53.20;;;;;;5045972;28;20166;-79
2021/06/30 11:00:12;;;;;;;13.07;11.90;;;29.90;53.20;;;;;;5039350;28;19912;-79
2021/06/30 11:02:41;;;;;;;14.00;10.95;;;30.20;52.90;;;;;;5047350;28;20117;-78
2021/06/30 11:05:13;;;;;;;11.82;10.77;;;30.30;52.80;;;;;;5049403;28;20308;-80
2021/06/30 11:07:41;;;;;;;11.70;10.52;;;30.40;52.70;;;;;;5048314;28;20413;-79
2021/06/30 11:10:16;;;;;;;18.02;14.82;;;30.60;52.60;;;;;;5049001;28;20043;-82
2021/06/30 11:12:55;;;;;;;14.73;13.15;;;30.70;51.40;;;;;;5034226;28;20025;-83
2021/06/30 11:15:48;;;;;;;18.10;13.70;;;30.60;50.40;;;;;;5043522;28;20436;-82
2021/06/30 11:18:17;;;;;;;21.60;13.30;;;30.40;50.10;;;;;;5044532;28;20029;-82
2021/06/30 11:20:47;;;;;;;13.32;11.85;;;30.10;50.00;;;;;;5048438;28;20377;-78
2021/06/30 11:23:20;;;;;;;15.27;10.88;;;29.80;49.80;;;;;;5038239;28;20072;-80
2021/06/30 11:25:48;;;;;;;17.40;11.20;;;29.70;49.90;;;;;;5028185;28;20037;-79
2021/06/30 11:28:35;;;;;;;12.57;11.13;;;29.50;50.10;;;;;;5032692;28;20404;-82
2021/06/30 11:31:26;;;;;;;11.07;9.98;;;29.50;49.80;;;;;;5041536;28;20029;-82
2021/06/30 11:34:11;;;;;;;16.27;12.02;;;29.50;49.90;;;;;;5032474;28;20353;-80
2021/06/30 11:36:38;;;;;;;16.50;11.70;;;29.40;49.80;;;;;;5028066;28;20037;-81
2021/06/30 11:39:08;;;;;;;15.32;11.77;;;29.40;49.80;;;;;;5026763;28;20271;-83
2021/06/30 11:41:46;;;;;;;13.85;11.85;;;29.30;49.40;;;;;;5027654;28;20034;-82
2021/06/30 11:44:13;;;;;;;16.25;12.55;;;29.30;49.20;;;;;;5023627;28;20025;-82
2021/06/30 11:46:43;;;;;;;13.27;11.93;;;29.30;49.30;;;;;;5028083;28;20065;-84
2021/06/30 11:49:11;;;;;;;14.90;12.90;;;29.40;49.20;;;;;;5042450;28;20029;-82
2021/06/30 11:51:38;;;;;;;11.80;10.60;;;29.30;49.00;;;;;;5030382;28;20108;-83
2021/06/30 11:54:13;;;;;;;13.93;12.43;;;29.30;48.80;;;;;;5047774;28;20048;-81
2021/06/30 11:56:40;;;;;;;15.07;11.98;;;29.20;49.40;;;;;;5047869;28;20111;-81
2021/06/30 11:59:14;;;;;;;12.73;11.43;;;29.20;48.90;;;;;;5048606;28;20185;-83
2021/06/30 12:01:41;;;;;;;13.98;9.63;;;29.10;49.10;;;;;;5047518;28;20056;-82
2021/06/30 12:04:22;;;;;;;10.77;9.75;;;29.10;49.30;;;;;;5047194;28;20029;-81
2021/06/30 12:06:55;;;;;;;11.50;10.38;;;29.10;49.30;;;;;;5046791;28;20143;-84
2021/06/30 12:09:24;;;;;;;14.15;11.10;;;29.00;49.20;;;;;;5047554;28;20048;-83
2021/06/30 12:11:57;;;;;;;13.30;10.82;;;29.10;49.40;;;;;;5047180;28;20512;-84
2021/06/30 12:14:29;;;;;;;11.10;10.00;;;29.10;49.00;;;;;;5045565;28;20044;-82
2021/06/30 12:17:03;;;;;;;13.35;10.23;;;29.20;49.10;;;;;;5045990;28;20496;-82
2021/06/30 12:19:35;;;;;;;17.27;11.35;;;29.20;49.00;;;;;;5025768;28;20124;-82
2021/06/30 12:22:18;;;;;;;16.27;11.43;;;29.20;49.00;;;;;;5042436;28;20306;-80
2021/06/30 12:24:45;;;;;;;11.90;10.70;;;29.20;48.90;;;;;;5027219;28;20263;-81
2021/06/30 12:27:13;;;;;;;13.13;11.77;;;29.30;49.00;;;;;;5027492;28;20088;-84
2021/06/30 12:29:40;;;;;;;12.02;10.82;;;29.40;48.90;;;;;;5045228;28;20031;-83
2021/06/30 12:32:14;;;;;;;12.45;11.18;;;29.40;49.00;;;;;;5046758;28;20079;-81
2021/06/30 12:34:41;;;;;;;14.02;12.52;;;29.40;48.70;;;;;;5047593;28;20349;-89
2021/06/30 12:37:09;;;;;;;15.90;11.88;;;29.50;48.80;;;;;;5046976;28;20115;-84
2021/06/30 12:39:40;;;;;;;13.57;12.27;;;29.50;49.00;;;;;;5048693;28;20044;-88
2021/06/30 12:42:07;;;;;;;12.55;11.38;;;29.60;48.80;;;;;;5046748;28;20038;-79
2021/06/30 12:44:54;;;;;;;11.07;9.95;;;29.50;48.70;;;;;;5045378;28;20036;-79